Time;durP1;ratioP1;P1;durP2;ratioP2;P2;SDS_P1;SDS_P2;PMS_P1;PMS_P2;Temp;Humidity;BMP_temperature;BMP_pressure;BME280_temperature;BME280_humidity;BME280_pressure;Samples;Min_cycle;Max_cycle;Signal;HPM_P1;HPM_P2
2023/02/26 00:00:22;;;;;;;;;6.60;5.80;;;;;7.58;48.23;101014.16;2079560;28;46466;-65
2023/02/26 00:01:25;;;;;;;;;5.25;5.25;;;;;7.57;48.04;101016.81;2087406;28;45163;-65
2023/02/26 00:02:25;;;;;;;;;5.00;5.00;;;;;7.56;48.22;101015.06;2087321;28;46612;-65
2023/02/26 00:03:26;;;;;;;;;6.25;6.25;;;;;7.54;48.26;101011.53;2080001;28;46878;-64
2023/02/26 00:04:27;;;;;;;;;7.50;7.50;;;;;7.53;48.24;101017.72;2087596;28;46675;-65
2023/02/26 00:05:27;;;;;;;;;4.40;4.40;;;;;7.53;48.38;101015.94;2087368;28;46112;-64
2023/02/26 00:06:31;;;;;;;;;7.00;5.50;;;;;7.52;48.09;101019.47;2077403;28;46650;-65
2023/02/26 00:07:31;;;;;;;;;9.40;9.00;;;;;7.51;48.20;101011.56;2087984;28;45620;-64
2023/02/26 00:08:32;;;;;;;;;5.00;5.00;;;;;7.51;47.97;101016.84;2086688;28;46133;-65
2023/02/26 00:09:32;;;;;;;;;7.25;5.00;;;;;7.50;48.07;101017.75;2079374;28;45918;-66
2023/02/26 00:10:33;;;;;;;;;6.25;5.25;;;;;7.50;48.03;101021.25;2078804;28;46191;-66
2023/02/26 00:11:34;;;;;;;;;7.75;6.50;;;;;7.50;48.19;101023.03;2079788;28;46847;-65
2023/02/26 00:12:35;;;;;;;;;7.50;6.00;;;;;7.51;48.14;101022.13;2079705;28;46685;-65
2023/02/26 00:13:36;;;;;;;;;6.20;4.60;;;;;7.49;48.00;101022.09;2087734;28;45287;-64
2023/02/26 00:14:37;;;;;;;;;6.80;6.00;;;;;7.49;48.21;101027.38;2087650;28;45186;-65
2023/02/26 00:15:38;;;;;;;;;5.00;5.00;;;;;7.48;48.07;101030.91;2087287;28;46630;-65
2023/02/26 00:16:38;;;;;;;;;6.75;5.75;;;;;7.47;48.04;101025.66;2087426;28;46017;-65
2023/02/26 00:17:48;;;;;;;;;7.00;5.00;;;;;7.45;47.79;101033.56;2079867;28;46377;-67
2023/02/26 00:18:48;;;;;;;;;6.60;5.20;;;;;7.43;48.12;101027.44;2079189;28;46197;-65
2023/02/26 00:19:49;;;;;;;;;5.00;4.00;;;;;7.40;48.13;101032.72;2080123;28;45934;-65
2023/02/26 00:20:50;;;;;;;;;4.75;4.25;;;;;7.41;48.11;101036.25;2079735;28;46334;-66
2023/02/26 00:21:50;;;;;;;;;7.25;7.00;;;;;7.38;47.89;101032.75;2079827;28;46763;-64
2023/02/26 00:22:51;;;;;;;;;5.50;5.25;;;;;7.37;47.92;101043.31;2079526;28;46782;-65
2023/02/26 00:23:52;;;;;;;;;6.75;5.25;;;;;7.35;48.03;101039.78;2080121;28;46515;-64
2023/02/26 00:24:52;;;;;;;;;5.60;5.00;;;;;7.33;47.94;101052.09;2079968;28;46030;-65
2023/02/26 00:25:53;;;;;;;;;7.50;4.00;;;;;7.33;47.85;101054.75;2079410;28;46603;-66
2023/02/26 00:26:54;;;;;;;;;6.50;5.25;;;;;7.31;47.83;101057.38;2079843;28;45835;-65
2023/02/26 00:27:54;;;;;;;;;5.50;5.50;;;;;7.29;48.06;101053.00;2077512;28;46317;-63
2023/02/26 00:28:56;;;;;;;;;6.00;5.25;;;;;7.29;48.08;101058.28;2079788;28;46887;-65
2023/02/26 00:29:56;;;;;;;;;6.60;5.00;;;;;7.27;47.86;101057.41;2079864;28;45812;-66
2023/02/26 00:30:57;;;;;;;;;8.50;7.00;;;;;7.26;48.08;101059.19;2079508;28;47022;-65
2023/02/26 00:31:58;;;;;;;;;7.25;6.50;;;;;7.26;47.96;101067.09;2079877;28;47562;-65
2023/02/26 00:32:58;;;;;;;;;8.50;4.75;;;;;7.25;48.17;101060.06;2075174;28;45913;-65
2023/02/26 00:33:59;;;;;;;;;8.00;5.00;;;;;7.25;47.84;101053.91;2073001;28;46092;-65
2023/02/26 00:34:59;;;;;;;;;5.00;5.00;;;;;7.23;47.80;101064.44;2079499;28;45654;-65
2023/02/26 00:36:08;;;;;;;;;7.00;5.00;;;;;7.23;47.89;101060.91;2079587;28;46311;-65
2023/02/26 00:37:20;;;;;;;;;7.40;5.60;;;;;7.21;48.10;101066.22;2079353;28;46742;-63
2023/02/26 00:38:21;;;;;;;;;6.40;5.00;;;;;7.20;48.00;101069.72;2080015;28;46307;-65
2023/02/26 00:39:43;;;;;;;;;5.00;5.00;;;;;7.20;48.13;101068.84;2079464;28;46720;-65
2023/02/26 00:40:46;;;;;;;;;4.00;4.00;;;;;7.19;48.14;101075.91;2079579;28;46653;-64
2023/02/26 00:41:46;;;;;;;;;7.20;5.20;;;;;7.18;47.84;101070.63;2079580;28;46042;-65
2023/02/26 00:42:47;;;;;;;;;4.00;4.00;;;;;7.17;47.96;101069.75;2079535;28;46382;-65
2023/02/26 00:43:48;;;;;;;;;5.75;5.00;;;;;7.15;47.89;101076.78;2078714;28;45749;-64
2023/02/26 00:44:48;;;;;;;;;6.50;6.50;;;;;7.14;48.14;101077.69;2087149;28;47087;-64
2023/02/26 00:46:22;;;;;;;;;5.25;4.50;;;;;7.13;47.92;101077.69;2091614;28;46675;-64
2023/02/26 00:47:47;;;;;;;;;10.40;8.20;;;;;7.12;47.77;101073.28;2070041;28;46966;-65
2023/02/26 00:49:16;;;;;;;;;9.60;8.80;;;;;7.09;47.81;101077.66;2069447;28;46426;-65
2023/02/26 00:50:20;;;;;;;;;6.60;6.60;;;;;7.08;47.83;101081.19;2069023;28;46432;-65
2023/02/26 00:51:41;;;;;;;;;5.40;5.40;;;;;7.06;47.96;101080.31;2065781;28;47234;-64
2023/02/26 00:52:51;;;;;;;;;8.80;7.40;;;;;7.06;47.77;101075.03;2066599;28;46643;-66
2023/02/26 00:54:15;;;;;;;;;7.00;7.00;;;;;7.04;47.67;101076.81;2066305;28;46736;-65
2023/02/26 00:55:15;;;;;;;;;8.00;5.00;;;;;7.02;47.80;101070.66;2070508;28;46590;-64
2023/02/26 00:56:16;;;;;;;;;4.50;4.50;;;;;7.03;47.99;101080.34;2070473;28;45849;-65
2023/02/26 00:57:16;;;;;;;;;5.00;5.00;;;;;7.03;47.75;101076.81;2070567;28;45962;-64
2023/02/26 00:58:16;;;;;;;;;7.75;6.00;;;;;7.02;47.78;101085.63;2070475;28;46203;-64
2023/02/26 00:59:18;;;;;;;;;5.00;5.00;;;;;7.03;48.04;101087.38;2070387;28;46769;-65
2023/02/26 01:00:19;;;;;;;;;8.40;5.80;;;;;7.01;48.00;101076.81;2070379;28;46339;-63
2023/02/26 01:01:19;;;;;;;;;8.00;8.00;;;;;7.00;47.94;101074.19;2070241;28;47007;-64
2023/02/26 01:02:20;;;;;;;;;9.00;8.00;;;;;6.99;47.87;101081.22;2070338;28;46588;-64
2023/02/26 01:03:20;;;;;;;;;9.25;7.25;;;;;6.98;47.80;101086.47;2070511;28;46734;-64
2023/02/26 01:04:22;;;;;;;;;6.75;5.00;;;;;6.96;47.63;101083.84;2070143;28;46547;-65
2023/02/26 01:05:23;;;;;;;;;9.00;7.80;;;;;6.96;47.65;101081.19;2070175;28;46457;-65
2023/02/26 01:06:29;;;;;;;;;4.00;4.00;;;;;6.96;47.58;101088.25;2070338;28;46431;-64
2023/02/26 01:07:39;;;;;;;;;9.20;7.20;;;;;6.95;47.85;101086.50;2061908;28;45968;-64
2023/02/26 01:08:50;;;;;;;;;7.60;5.20;;;;;6.94;47.56;101090.88;2062115;28;46621;-64
2023/02/26 01:09:50;;;;;;;;;5.00;5.00;;;;;6.93;47.61;101089.13;2067329;28;46625;-65
2023/02/26 01:10:51;;;;;;;;;4.50;4.50;;;;;6.93;47.58;101082.97;2069841;28;46518;-66
2023/02/26 01:11:53;;;;;;;;;8.75;7.00;;;;;6.92;47.96;101094.41;2061540;28;46307;-65
2023/02/26 01:12:55;;;;;;;;;8.60;4.80;;;;;6.91;47.83;101082.97;2061509;28;46196;-64
2023/02/26 01:13:56;;;;;;;;;7.00;7.00;;;;;6.90;47.75;101091.78;2062341;28;46555;-64
2023/02/26 01:14:56;;;;;;;;;4.50;4.00;;;;;6.90;47.71;101085.63;2065603;28;46187;-65
2023/02/26 01:16:07;;;;;;;;;5.00;5.00;;;;;6.90;47.66;101083.00;2070464;28;46837;-64
2023/02/26 01:17:22;;;;;;;;;5.40;5.40;;;;;6.89;47.70;101087.38;2069941;28;46283;-65
2023/02/26 01:18:27;;;;;;;;;6.60;6.60;;;;;6.90;47.72;101089.16;2070614;28;45670;-64
2023/02/26 01:19:44;;;;;;;;;7.20;5.00;;;;;6.90;47.63;101088.25;2070533;28;46648;-64
2023/02/26 01:20:51;;;;;;;;;5.60;4.00;;;;;6.89;47.60;101086.50;2071758;28;46963;-65
2023/02/26 01:22:00;;;;;;;;;4.60;4.20;;;;;6.88;47.46;101080.34;2071722;28;46827;-65
2023/02/26 01:23:07;;;;;;;;;4.80;4.20;;;;;6.88;47.81;101090.03;2071410;28;46606;-65
2023/02/26 01:24:14;;;;;;;;;7.60;6.60;;;;;6.87;48.00;101090.91;2071745;28;46799;-65
2023/02/26 01:25:23;;;;;;;;;3.80;3.80;;;;;6.87;47.53;101080.38;2068779;28;46464;-65
2023/02/26 01:26:28;;;;;;;;;3.40;3.40;;;;;6.87;47.84;101086.50;2071821;28;47021;-65
2023/02/26 01:27:28;;;;;;;;;6.60;6.60;;;;;6.86;48.06;101081.22;2072957;28;46123;-65
2023/02/26 01:28:29;;;;;;;;;3.00;2.25;;;;;6.86;47.58;101083.84;2084404;28;46408;-65
2023/02/26 01:29:30;;;;;;;;;7.00;7.00;;;;;6.85;47.65;101090.88;2086141;28;46408;-66
2023/02/26 01:30:30;;;;;;;;;7.00;6.50;;;;;6.86;47.78;101083.84;2081031;28;45853;-64
2023/02/26 01:31:41;;;;;;;;;8.25;7.25;;;;;6.86;47.73;101084.75;2079855;28;46217;-65
2023/02/26 01:32:56;;;;;;;;;5.00;5.00;;;;;6.85;47.60;101085.59;2078364;28;46998;-66
2023/02/26 01:34:24;;;;;;;;;7.40;6.60;;;;;6.84;47.66;101082.97;2072735;28;46264;-64
2023/02/26 01:35:42;;;;;;;;;8.40;7.00;;;;;6.83;47.75;101086.50;2072483;28;46420;-65
2023/02/26 01:36:55;;;;;;;;;4.00;4.00;;;;;6.82;47.50;101082.09;2072547;28;46478;-64
2023/02/26 01:38:01;;;;;;;;;6.60;6.60;;;;;6.78;47.86;101083.88;2077603;28;46936;-65
2023/02/26 01:39:11;;;;;;;;;6.20;5.20;;;;;6.76;47.74;101083.00;2080736;28;46187;-65
2023/02/26 01:40:39;;;;;;;;;7.80;5.00;;;;;6.75;47.68;101082.13;2080724;28;45629;-65
2023/02/26 01:42:14;;;;;;;;;7.40;7.40;;;;;6.75;47.87;101087.41;2080507;28;46620;-65
2023/02/26 01:43:21;;;;;;;;;5.60;5.40;;;;;6.74;47.65;101088.28;2079721;28;46547;-65
2023/02/26 01:44:29;;;;;;;;;3.40;3.40;;;;;6.71;47.31;101088.25;2079511;28;46027;-64
2023/02/26 01:45:34;;;;;;;;;7.40;4.20;;;;;6.71;47.31;101087.38;2079333;28;47252;-65
2023/02/26 01:47:01;;;;;;;;;8.20;7.00;;;;;6.70;47.78;101089.13;2079760;28;45371;-64
2023/02/26 01:48:10;;;;;;;;;9.80;4.40;;;;;6.69;47.66;101083.88;2062944;28;45773;-65
2023/02/26 01:49:17;;;;;;;;;5.40;4.40;;;;;6.69;47.65;101087.38;2064157;28;46761;-65
2023/02/26 01:50:20;;;;;;;;;5.00;4.40;;;;;6.69;47.65;101090.03;2071981;28;45932;-65
2023/02/26 01:51:41;;;;;;;;;5.00;5.00;;;;;6.69;47.60;101091.78;2079521;28;46763;-64
2023/02/26 01:52:47;;;;;;;;;4.40;4.40;;;;;6.67;47.52;101091.78;2079748;28;46214;-64
2023/02/26 01:53:48;;;;;;;;;6.60;4.80;;;;;6.66;47.52;101095.31;2079480;28;46531;-64
2023/02/26 01:54:48;;;;;;;;;5.25;5.25;;;;;6.63;47.75;101092.66;2079339;28;46388;-65
2023/02/26 01:55:59;;;;;;;;;2.25;1.50;;;;;6.63;47.79;101097.06;2079711;28;46471;-65
2023/02/26 01:57:10;;;;;;;;;4.80;4.20;;;;;6.62;47.62;101092.66;2079640;28;46972;-65
2023/02/26 01:58:11;;;;;;;;;6.20;5.20;;;;;6.60;47.72;101105.81;2079436;28;46771;-65
2023/02/26 01:59:15;;;;;;;;;8.60;8.00;;;;;6.58;47.34;101104.94;2079659;28;46886;-64
2023/02/26 02:00:16;;;;;;;;;3.00;3.00;;;;;6.59;47.41;101103.19;2079089;28;46658;-65
2023/02/26 02:01:16;;;;;;;;;5.20;5.20;;;;;6.58;47.74;101109.34;2079692;28;45886;-65
2023/02/26 02:02:23;;;;;;;;;8.00;8.00;;;;;6.58;47.57;101101.44;2079270;28;46183;-64
2023/02/26 02:03:27;;;;;;;;;4.00;4.00;;;;;6.58;47.70;101101.44;2080245;28;46377;-65
2023/02/26 02:04:29;;;;;;;;;5.00;5.00;;;;;6.59;47.76;101103.19;2079990;28;45849;-64
2023/02/26 02:05:52;;;;;;;;;4.00;4.00;;;;;6.59;47.65;101106.72;2079392;28;46741;-65
2023/02/26 02:06:54;;;;;;;;;6.40;6.40;;;;;6.59;48.03;101105.81;2079434;28;46670;-64
2023/02/26 02:07:56;;;;;;;;;9.20;8.80;;;;;6.59;48.12;101114.63;2079498;28;46778;-65
2023/02/26 02:08:56;;;;;;;;;7.60;5.40;;;;;6.59;47.63;101109.34;2079256;28;46060;-65
2023/02/26 02:09:57;;;;;;;;;5.00;5.00;;;;;6.59;47.33;101109.34;2079845;28;46527;-64
2023/02/26 02:10:57;;;;;;;;;7.00;7.00;;;;;6.59;47.32;101111.09;2079441;28;46835;-66
2023/02/26 02:12:30;;;;;;;;;5.25;5.25;;;;;6.57;47.46;101107.59;2079672;28;46032;-66
2023/02/26 02:13:49;;;;;;;;;7.60;5.20;;;;;6.56;47.67;101113.75;2079428;28;46625;-65
2023/02/26 02:15:04;;;;;;;;;7.40;7.40;;;;;6.54;47.31;101110.22;2079564;28;46525;-65
2023/02/26 02:16:31;;;;;;;;;8.40;7.20;;;;;6.51;47.78;101111.13;2079599;28;45569;-64
2023/02/26 02:17:37;;;;;;;;;4.80;4.80;;;;;6.48;47.07;101104.09;2079455;28;46081;-64
2023/02/26 02:19:07;;;;;;;;;7.20;5.20;;;;;6.45;47.47;101104.06;2079396;28;45674;-65
2023/02/26 02:20:44;;;;;;;;;7.20;5.20;;;;;6.43;47.33;101113.72;2079560;28;46426;-64
2023/02/26 02:21:55;;;;;;;;;4.80;4.00;;;;;6.40;47.62;101105.81;2070961;28;46501;-64
2023/02/26 02:22:58;;;;;;;;;5.40;4.00;;;;;6.39;47.56;101108.47;2069853;28;46426;-65
2023/02/26 02:24:10;;;;;;;;;5.20;3.60;;;;;6.39;47.49;101109.34;2062923;28;46937;-65
2023/02/26 02:25:24;;;;;;;;;2.20;2.20;;;;;6.38;47.59;101112.84;2062951;28;46177;-64
2023/02/26 02:26:43;;;;;;;;;6.60;4.80;;;;;6.37;47.45;101112.84;2062925;28;46222;-64
2023/02/26 02:28:17;;;;;;;;;6.20;5.60;;;;;6.34;47.54;101105.78;2062454;28;46771;-65
2023/02/26 02:29:26;;;;;;;;;4.00;4.00;;;;;6.32;47.03;101107.56;2059606;28;46998;-65
2023/02/26 02:30:54;;;;;;;;;4.20;4.00;;;;;6.31;47.54;101108.44;2063188;28;46334;-65
2023/02/26 02:32:10;;;;;;;;;4.00;4.00;;;;;6.30;47.65;101111.06;2062635;28;46920;-66
2023/02/26 02:33:22;;;;;;;;;3.20;3.20;;;;;6.30;47.19;101109.31;2071385;28;44985;-65
2023/02/26 02:34:45;;;;;;;;;4.00;4.00;;;;;6.29;47.14;101112.81;2068497;28;46302;-66
2023/02/26 02:35:55;;;;;;;;;3.60;3.20;;;;;6.29;46.97;101115.47;2062953;28;46803;-64
2023/02/26 02:37:04;;;;;;;;;7.20;6.40;;;;;6.29;47.59;101125.13;2063126;28;46931;-65
2023/02/26 02:38:15;;;;;;;;;5.60;5.60;;;;;6.28;47.44;101126.00;2062902;28;46467;-64
2023/02/26 02:39:25;;;;;;;;;4.80;4.80;;;;;6.26;47.45;101126.00;2063499;28;45839;-65
2023/02/26 02:40:31;;;;;;;;;7.60;4.80;;;;;6.26;47.57;101122.50;2054437;28;46396;-65
2023/02/26 02:41:38;;;;;;;;;3.20;2.80;;;;;6.26;47.56;101119.84;2047384;28;46293;-65
2023/02/26 02:42:56;;;;;;;;;6.60;6.60;;;;;6.24;47.83;101125.13;2059947;28;45608;-65
2023/02/26 02:44:01;;;;;;;;;6.00;3.80;;;;;6.23;47.76;101125.13;2062952;28;46680;-66
2023/02/26 02:45:10;;;;;;;;;4.20;2.60;;;;;6.21;47.35;101117.19;2063259;28;46776;-65
2023/02/26 02:46:17;;;;;;;;;3.00;3.00;;;;;6.21;47.51;101119.81;2060594;28;46330;-65
2023/02/26 02:47:20;;;;;;;;;4.00;3.00;;;;;6.20;47.48;101131.25;2063070;28;46563;-65
2023/02/26 02:48:31;;;;;;;;;3.40;3.00;;;;;6.21;47.15;101125.09;2070909;28;46919;-64
2023/02/26 02:49:41;;;;;;;;;7.00;5.20;;;;;6.20;47.30;101129.50;2062079;28;46502;-64
2023/02/26 02:50:50;;;;;;;;;3.60;3.60;;;;;6.22;47.67;101128.59;2059558;28;46571;-65
2023/02/26 02:51:59;;;;;;;;;3.20;3.20;;;;;6.22;47.33;101136.50;2062955;28;45687;-65
2023/02/26 02:53:22;;;;;;;;;4.60;4.60;;;;;6.20;47.13;101131.25;2054990;28;46505;-64
2023/02/26 02:54:30;;;;;;;;;2.40;2.40;;;;;6.19;47.80;101138.28;2062651;28;46112;-64
2023/02/26 02:55:37;;;;;;;;;3.40;3.40;;;;;6.18;47.41;101135.63;2063138;28;45177;-65
2023/02/26 02:56:55;;;;;;;;;7.60;5.00;;;;;6.17;47.74;101141.78;2063072;28;46778;-65
2023/02/26 02:58:07;;;;;;;;;4.40;3.00;;;;;6.15;47.52;101136.50;2063271;28;45712;-64
2023/02/26 02:59:20;;;;;;;;;4.40;4.40;;;;;6.14;47.61;101134.75;2063231;28;46914;-64
2023/02/26 03:00:23;;;;;;;;;5.80;4.40;;;;;6.14;47.37;101139.16;2080530;28;46038;-65
2023/02/26 03:01:26;;;;;;;;;5.80;5.60;;;;;6.14;47.57;101140.03;2080473;28;46488;-64
2023/02/26 03:02:39;;;;;;;;;6.20;6.20;;;;;6.14;47.27;101139.16;2073352;28;46535;-64
2023/02/26 03:03:44;;;;;;;;;8.40;7.60;;;;;6.14;47.54;101144.41;2075534;28;46524;-65
2023/02/26 03:04:44;;;;;;;;;3.80;3.80;;;;;6.13;47.83;101133.00;2080245;28;45185;-65
2023/02/26 03:05:45;;;;;;;;;6.50;5.25;;;;;6.13;47.52;101143.53;2080084;28;46747;-64
2023/02/26 03:06:48;;;;;;;;;4.25;4.25;;;;;6.13;47.50;101140.03;2080099;28;46741;-64
2023/02/26 03:08:03;;;;;;;;;2.00;2.00;;;;;6.11;47.40;101140.03;2096387;28;46398;-63
2023/02/26 03:09:05;;;;;;;;;5.20;4.00;;;;;6.11;47.56;101142.66;2094126;28;45857;-63
2023/02/26 03:10:06;;;;;;;;;6.80;4.00;;;;;6.11;47.72;101152.31;2087748;28;46100;-63
2023/02/26 03:11:08;;;;;;;;;7.25;7.00;;;;;6.10;47.38;101138.25;2080323;28;46079;-64
2023/02/26 03:12:08;;;;;;;;;5.60;5.60;;;;;6.10;47.30;101147.94;2080316;28;46707;-64
2023/02/26 03:13:23;;;;;;;;;5.00;5.00;;;;;6.11;47.20;101142.66;2079938;28;46527;-64
2023/02/26 03:14:24;;;;;;;;;7.00;4.20;;;;;6.11;47.66;101142.66;2080494;28;45767;-64
2023/02/26 03:15:47;;;;;;;;;5.00;4.20;;;;;6.13;47.38;101154.06;2079811;28;46967;-64
2023/02/26 03:17:04;;;;;;;;;4.00;4.00;;;;;6.14;47.14;101147.06;2079529;28;46266;-64
2023/02/26 03:18:23;;;;;;;;;3.00;3.00;;;;;6.14;47.81;101141.78;2079953;28;45942;-65
2023/02/26 03:19:35;;;;;;;;;7.40;4.00;;;;;6.13;47.48;101142.66;2080183;28;46715;-65
2023/02/26 03:20:45;;;;;;;;;4.00;4.00;;;;;6.13;47.61;101151.44;2095882;28;46747;-65
2023/02/26 03:22:14;;;;;;;;;7.60;4.80;;;;;6.13;47.16;101146.19;2092134;28;46714;-65
2023/02/26 03:23:28;;;;;;;;;4.40;2.80;;;;;6.12;47.50;101146.16;2079374;28;46984;-64
2023/02/26 03:24:50;;;;;;;;;7.80;7.20;;;;;6.11;47.20;101153.19;2077815;28;46393;-64
2023/02/26 03:26:12;;;;;;;;;4.80;4.80;;;;;6.11;47.54;101155.84;2071847;28;46563;-65
2023/02/26 03:27:17;;;;;;;;;3.20;3.20;;;;;6.11;47.68;101152.31;2080193;28;47032;-64
2023/02/26 03:28:51;;;;;;;;;6.40;4.20;;;;;6.10;47.67;101146.16;2081779;28;46778;-65
2023/02/26 03:30:06;;;;;;;;;3.00;2.60;;;;;6.09;47.56;101148.78;2081748;28;46441;-64
2023/02/26 03:31:28;;;;;;;;;4.40;4.40;;;;;6.10;47.26;101151.44;2076288;28;46171;-64
2023/02/26 03:32:28;;;;;;;;;3.20;3.00;;;;;6.09;47.62;101157.56;2088991;28;46764;-64
2023/02/26 03:33:37;;;;;;;;;5.00;4.25;;;;;6.10;47.26;101153.19;2087733;28;46684;-65
2023/02/26 03:34:49;;;;;;;;;7.00;5.20;;;;;6.10;47.59;101156.72;2077157;28;46541;-64
2023/02/26 03:35:56;;;;;;;;;4.40;4.00;;;;;6.10;47.23;101151.44;2080069;28;45836;-64
2023/02/26 03:37:05;;;;;;;;;5.20;3.60;;;;;6.10;47.51;101159.34;2080181;28;47027;-64
2023/02/26 03:38:13;;;;;;;;;4.40;3.40;;;;;6.11;47.56;101153.19;2080286;28;45142;-65
2023/02/26 03:39:23;;;;;;;;;4.00;4.00;;;;;6.11;47.32;101160.22;2080043;28;45748;-65
2023/02/26 03:40:29;;;;;;;;;3.80;3.80;;;;;6.11;47.63;101157.59;2079961;28;45629;-64
2023/02/26 03:41:41;;;;;;;;;4.00;4.00;;;;;6.10;47.20;101150.56;2079930;28;45974;-64
2023/02/26 03:42:47;;;;;;;;;4.20;3.60;;;;;6.08;47.69;101147.91;2078301;28;46582;-64
2023/02/26 03:44:18;;;;;;;;;5.60;4.40;;;;;6.09;47.69;101152.28;2079186;28;46930;-65
2023/02/26 03:45:24;;;;;;;;;5.40;4.00;;;;;6.09;47.71;101160.19;2079846;28;46846;-65
2023/02/26 03:46:33;;;;;;;;;3.80;3.80;;;;;6.09;47.66;101170.72;2079839;28;46356;-64
2023/02/26 03:47:35;;;;;;;;;3.00;3.00;;;;;6.08;47.15;101166.34;2079744;28;46746;-65
2023/02/26 03:48:35;;;;;;;;;6.00;3.80;;;;;6.07;47.45;101161.94;2079780;28;46496;-66
2023/02/26 03:49:46;;;;;;;;;6.75;6.50;;;;;6.06;47.56;101160.19;2079966;28;46271;-64
2023/02/26 03:50:51;;;;;;;;;6.20;3.60;;;;;6.06;47.77;101168.09;2077927;28;46490;-63
2023/02/26 03:51:53;;;;;;;;;4.00;4.00;;;;;6.05;47.49;101168.97;2072018;28;45174;-64
2023/02/26 03:52:54;;;;;;;;;4.40;2.40;;;;;6.05;47.45;101173.34;2071558;28;46503;-65
2023/02/26 03:54:08;;;;;;;;;5.00;3.75;;;;;6.05;47.33;101170.72;2082570;28;45749;-64
2023/02/26 03:55:16;;;;;;;;;4.20;2.60;;;;;6.04;47.60;101179.50;2077502;28;46452;-63
2023/02/26 03:56:41;;;;;;;;;3.40;3.20;;;;;6.04;47.39;101172.47;2071767;28;46366;-65
2023/02/26 03:57:42;;;;;;;;;3.00;3.00;;;;;6.05;47.91;101176.88;2079209;28;46347;-64
2023/02/26 03:58:43;;;;;;;;;4.60;4.60;;;;;6.06;47.35;101172.47;2079999;28;45579;-65
2023/02/26 03:59:44;;;;;;;;;3.00;3.00;;;;;6.05;47.26;101176.00;2079453;28;46717;-64
2023/02/26 04:00:49;;;;;;;;;4.00;4.00;;;;;6.04;47.83;101177.75;2079872;28;46474;-65
2023/02/26 04:02:02;;;;;;;;;4.40;4.40;;;;;6.04;47.76;101177.75;2074029;28;45773;-65
2023/02/26 04:03:11;;;;;;;;;5.20;5.20;;;;;6.03;47.65;101181.25;2080105;28;46499;-64
2023/02/26 04:04:21;;;;;;;;;6.40;6.40;;;;;6.02;47.57;101184.78;2095721;28;46371;-65
2023/02/26 04:05:39;;;;;;;;;4.00;4.00;;;;;6.01;47.62;101174.22;2093499;28;46407;-64
2023/02/26 04:06:41;;;;;;;;;7.60;5.60;;;;;5.99;47.33;101179.50;2079849;28;46437;-64
2023/02/26 04:07:43;;;;;;;;;5.60;4.40;;;;;5.98;47.87;101177.75;2072905;28;46296;-64
2023/02/26 04:08:44;;;;;;;;;6.60;6.60;;;;;5.96;47.46;101183.84;2076238;28;46068;-64
2023/02/26 04:09:48;;;;;;;;;4.00;4.00;;;;;5.96;47.78;101191.75;2079788;28;46374;-65
2023/02/26 04:11:05;;;;;;;;;4.40;4.00;;;;;5.95;47.79;101187.34;2079973;28;45147;-65
2023/02/26 04:12:06;;;;;;;;;3.60;3.60;;;;;5.95;47.51;101182.09;2079623;28;47178;-66
2023/02/26 04:13:07;;;;;;;;;3.50;3.00;;;;;5.94;47.80;101183.84;2079847;28;46771;-63
2023/02/26 04:14:07;;;;;;;;;4.00;4.00;;;;;5.94;47.34;101183.84;2079622;28;45901;-65
2023/02/26 04:15:08;;;;;;;;;3.00;3.00;;;;;5.95;47.62;101182.09;2078235;28;46248;-65
2023/02/26 04:16:08;;;;;;;;;2.80;2.80;;;;;5.96;47.43;101189.13;2074320;28;46582;-64
2023/02/26 04:17:09;;;;;;;;;6.50;4.00;;;;;5.95;47.92;101180.34;2077246;28;45892;-64
2023/02/26 04:18:09;;;;;;;;;4.00;4.00;;;;;5.96;48.13;101192.63;2080187;28;45543;-65
2023/02/26 04:19:10;;;;;;;;;4.00;3.00;;;;;5.95;47.95;101188.25;2080151;28;45532;-65
2023/02/26 04:20:10;;;;;;;;;3.50;3.50;;;;;5.94;47.77;101189.13;2079167;28;46578;-65
2023/02/26 04:21:19;;;;;;;;;3.75;3.75;;;;;5.94;47.57;101188.22;2087736;28;46635;-64
2023/02/26 04:22:19;;;;;;;;;4.80;4.80;;;;;5.93;47.94;101192.63;2093443;28;46668;-64
2023/02/26 04:23:20;;;;;;;;;4.00;4.00;;;;;5.92;47.78;101190.88;2079908;28;46170;-65
2023/02/26 04:24:20;;;;;;;;;3.75;3.75;;;;;5.92;47.57;101190.00;2076693;28;45540;-65
2023/02/26 04:25:20;;;;;;;;;4.00;3.00;;;;;5.90;48.08;101195.25;2078180;28;45871;-65
2023/02/26 04:26:21;;;;;;;;;4.00;4.00;;;;;5.88;47.82;101192.56;2077063;28;45704;-65
2023/02/26 04:27:21;;;;;;;;;4.00;4.00;;;;;5.89;47.68;101188.19;2080190;28;46429;-64
2023/02/26 04:28:21;;;;;;;;;3.25;3.25;;;;;5.90;47.62;101196.13;2086729;28;45440;-64
2023/02/26 04:29:22;;;;;;;;;4.00;4.00;;;;;5.90;47.70;101197.88;2087223;28;46878;-65
2023/02/26 04:30:22;;;;;;;;;5.75;4.00;;;;;5.89;47.88;101199.59;2077601;28;46029;-65
2023/02/26 04:31:22;;;;;;;;;1.75;1.75;;;;;5.91;47.80;101204.91;2073702;28;46286;-64
2023/02/26 04:32:23;;;;;;;;;3.00;3.00;;;;;5.90;47.70;101204.03;2080108;28;46769;-64
2023/02/26 04:33:23;;;;;;;;;4.50;3.50;;;;;5.89;47.70;101191.69;2079699;28;46695;-64
2023/02/26 04:34:23;;;;;;;;;5.00;4.00;;;;;5.88;48.14;101200.47;2079549;28;46402;-64
2023/02/26 04:35:24;;;;;;;;;4.50;4.00;;;;;5.87;47.93;101198.72;2079814;28;46564;-64
2023/02/26 04:36:24;;;;;;;;;6.00;6.00;;;;;5.87;47.69;101201.34;2079543;28;45660;-65
2023/02/26 04:37:25;;;;;;;;;3.00;3.00;;;;;5.86;47.94;101193.44;2080214;28;45742;-64
2023/02/26 04:38:26;;;;;;;;;6.25;4.00;;;;;5.86;48.10;101201.34;2079694;28;46332;-64
2023/02/26 04:39:26;;;;;;;;;3.20;3.00;;;;;5.86;47.81;101204.88;2079858;28;45729;-64
2023/02/26 04:40:26;;;;;;;;;3.50;3.50;;;;;5.86;47.77;101207.50;2079499;28;46328;-65
2023/02/26 04:41:27;;;;;;;;;2.25;2.25;;;;;5.86;47.91;101209.25;2095994;28;45401;-64
2023/02/26 04:42:27;;;;;;;;;4.75;3.75;;;;;5.86;47.48;101210.13;2096257;28;45402;-65
2023/02/26 04:43:28;;;;;;;;;3.00;3.00;;;;;5.84;47.87;101211.88;2078738;28;46200;-65
2023/02/26 04:44:28;;;;;;;;;6.00;6.00;;;;;5.82;47.64;101221.50;2071109;28;45887;-65
2023/02/26 04:45:28;;;;;;;;;6.00;5.00;;;;;5.84;47.95;101216.25;2061875;28;45280;-65
2023/02/26 04:46:29;;;;;;;;;5.75;5.75;;;;;5.83;47.68;101220.63;2074963;28;46321;-65
2023/02/26 04:47:29;;;;;;;;;4.00;3.00;;;;;5.82;47.72;101217.97;2095594;28;46046;-64
2023/02/26 04:48:29;;;;;;;;;0.00;0.00;;;;;5.82;48.09;101220.63;2095805;28;46680;-65
2023/02/26 04:49:30;;;;;;;;;6.00;6.00;;;;;5.82;48.05;101221.50;2079639;28;46379;-66
2023/02/26 04:50:30;;;;;;;;;7.50;6.00;;;;;5.82;48.17;101226.75;2079338;28;46303;-65
2023/02/26 04:51:31;;;;;;;;;9.75;6.00;;;;;5.82;47.94;101225.88;2079643;28;46117;-65
2023/02/26 04:52:31;;;;;;;;;6.25;6.25;;;;;5.81;48.21;101225.00;2079837;28;45832;-65
2023/02/26 04:53:31;;;;;;;;;6.00;5.50;;;;;5.82;48.28;101226.75;2078808;28;46195;-65
2023/02/26 04:54:32;;;;;;;;;7.00;4.00;;;;;5.81;47.91;101225.00;2079494;28;46407;-64
2023/02/26 04:55:34;;;;;;;;;5.75;5.75;;;;;5.81;48.17;101229.41;2080790;28;46579;-63
2023/02/26 04:56:34;;;;;;;;;7.40;6.60;;;;;5.79;47.69;101232.03;2080830;28;46486;-64
2023/02/26 04:57:34;;;;;;;;;8.25;8.25;;;;;5.79;47.80;101236.41;2081007;28;46432;-64
2023/02/26 04:58:35;;;;;;;;;7.50;4.25;;;;;5.78;48.10;101235.53;2076456;28;46323;-65
2023/02/26 04:59:37;;;;;;;;;6.50;6.50;;;;;5.79;48.06;101236.41;2078183;28;46159;-65
2023/02/26 05:00:37;;;;;;;;;6.40;6.00;;;;;5.78;47.80;101230.25;2080662;28;46335;-65
2023/02/26 05:01:38;;;;;;;;;4.00;4.00;;;;;5.78;48.03;101232.03;2081348;28;45191;-65
2023/02/26 05:02:38;;;;;;;;;4.00;4.00;;;;;5.78;48.46;101238.16;2080843;28;46476;-64
2023/02/26 05:03:39;;;;;;;;;5.00;5.00;;;;;5.77;48.09;101233.78;2080728;28;45478;-64
2023/02/26 05:04:39;;;;;;;;;8.50;7.50;;;;;5.76;48.19;101233.78;2081059;28;45737;-65
2023/02/26 05:05:39;;;;;;;;;6.00;6.00;;;;;5.75;48.06;101232.88;2080934;28;46655;-65
2023/02/26 05:06:40;;;;;;;;;5.00;5.00;;;;;5.75;47.87;101237.28;2080867;28;46059;-65
2023/02/26 05:07:41;;;;;;;;;4.80;4.80;;;;;5.75;47.91;101232.00;2080916;28;46216;-65
2023/02/26 05:08:41;;;;;;;;;6.75;6.75;;;;;5.73;48.14;101234.63;2081008;28;47040;-64
2023/02/26 05:09:42;;;;;;;;;4.25;4.25;;;;;5.71;48.41;101232.84;2080986;28;47648;-65
2023/02/26 05:10:42;;;;;;;;;9.50;7.50;;;;;5.69;48.04;101227.56;2080536;28;46621;-65
2023/02/26 05:11:43;;;;;;;;;6.75;6.75;;;;;5.69;48.01;101234.59;2081207;28;45652;-65
2023/02/26 05:12:43;;;;;;;;;3.75;3.75;;;;;5.69;47.88;101232.84;2080507;28;46767;-65
2023/02/26 05:13:44;;;;;;;;;6.00;5.75;;;;;5.67;47.99;101229.31;2080902;28;46788;-65